createdAt,value
2019-03-21T00:00:22.910Z,9.60
2019-03-21T00:02:55.402Z,9.60
2019-03-21T00:05:27.140Z,9.60
2019-03-21T00:07:57.956Z,9.50
2019-03-21T00:11:27.062Z,9.50
2019-03-21T00:14:06.929Z,9.50
2019-03-21T00:16:32.516Z,9.50
2019-03-21T00:19:02.734Z,9.50
2019-03-21T00:21:32.955Z,9.50
2019-03-21T00:24:03.253Z,9.50
2019-03-21T00:26:33.754Z,9.50
2019-03-21T00:29:04.346Z,9.50
2019-03-21T00:31:34.452Z,9.50
2019-03-21T00:34:04.765Z,9.50
2019-03-21T00:36:35.213Z,9.50
2019-03-21T00:39:07.488Z,9.50
2019-03-21T00:41:38.054Z,9.60
2019-03-21T00:44:17.894Z,9.60
2019-03-21T00:46:40.275Z,9.60
2019-03-21T00:49:10.527Z,9.60
2019-03-21T00:51:40.686Z,9.60
2019-03-21T00:54:11.282Z,9.60
2019-03-21T00:56:44.046Z,9.60
2019-03-21T00:59:14.262Z,9.60
2019-03-21T01:01:44.677Z,9.60
2019-03-21T01:04:14.859Z,9.60
2019-03-21T01:06:45.000Z,9.60
2019-03-21T01:09:15.828Z,9.60
2019-03-21T01:11:46.056Z,9.60
2019-03-21T01:14:17.335Z,9.60
2019-03-21T01:16:47.480Z,9.60
2019-03-21T01:19:17.904Z,9.60
2019-03-21T01:21:48.563Z,9.60
2019-03-21T01:24:19.187Z,9.60
2019-03-21T01:26:49.316Z,9.60
2019-03-21T01:29:20.122Z,9.60
2019-03-21T01:31:54.507Z,9.60
2019-03-21T01:34:24.518Z,9.50
2019-03-21T01:36:54.906Z,9.50
2019-03-21T01:39:25.029Z,9.50
2019-03-21T01:41:55.402Z,9.50
2019-03-21T01:44:25.548Z,9.50
2019-03-21T01:46:56.064Z,9.50
2019-03-21T01:49:26.276Z,9.50
2019-03-21T01:51:56.836Z,9.50
2019-03-21T01:54:27.797Z,9.50
2019-03-21T01:56:57.997Z,9.50
2019-03-21T01:59:28.142Z,9.50
2019-03-21T02:01:59.367Z,9.50
2019-03-21T02:04:29.844Z,9.50
2019-03-21T02:07:00.288Z,9.50
2019-03-21T02:09:30.575Z,9.50
2019-03-21T02:12:00.759Z,9.50
2019-03-21T02:14:31.000Z,9.50
2019-03-21T02:17:01.539Z,9.60
2019-03-21T02:19:31.722Z,9.60
2019-03-21T02:22:02.149Z,9.50
2019-03-21T02:24:32.335Z,9.50
2019-03-21T02:27:02.681Z,9.50
2019-03-21T02:29:32.845Z,9.60
2019-03-21T02:32:03.046Z,9.60
2019-03-21T02:34:33.670Z,9.60
2019-03-21T02:37:03.940Z,9.70
2019-03-21T02:39:34.215Z,9.70
2019-03-21T02:42:04.475Z,9.70
2019-03-21T02:44:34.911Z,9.70
2019-03-21T02:47:05.423Z,9.70
2019-03-21T02:49:35.724Z,9.70
2019-03-21T02:52:06.102Z,9.70
2019-03-21T02:54:36.218Z,9.60
2019-03-21T02:57:06.617Z,9.70
2019-03-21T02:59:36.837Z,9.60
2019-03-21T03:02:07.269Z,9.70
2019-03-21T03:04:37.705Z,9.70
2019-03-21T03:07:12.771Z,9.80
2019-03-21T03:09:43.291Z,9.70
2019-03-21T03:12:13.448Z,9.80
2019-03-21T03:14:43.808Z,9.80
2019-03-21T03:17:17.744Z,9.70
2019-03-21T03:19:47.932Z,9.70
2019-03-21T03:22:18.156Z,9.80
2019-03-21T03:24:48.261Z,9.80
2019-03-21T03:27:18.510Z,9.80
2019-03-21T03:29:48.793Z,9.80
2019-03-21T03:32:19.382Z,9.80
2019-03-21T03:34:51.806Z,9.70
2019-03-21T03:37:22.036Z,9.70
2019-03-21T03:39:53.374Z,9.70
2019-03-21T03:42:23.986Z,9.70
2019-03-21T03:44:54.218Z,9.70
2019-03-21T03:47:24.473Z,9.70
2019-03-21T03:49:54.693Z,9.70
2019-03-21T03:52:24.835Z,9.70
2019-03-21T03:54:55.207Z,9.70
2019-03-21T03:57:25.633Z,9.80
2019-03-21T03:59:55.932Z,9.70
2019-03-21T04:02:26.327Z,9.80
2019-03-21T04:04:56.646Z,9.80
2019-03-21T04:07:26.903Z,9.80
2019-03-21T04:09:57.371Z,9.80
2019-03-21T04:12:27.801Z,9.80
2019-03-21T04:14:58.168Z,9.80
2019-03-21T04:17:29.889Z,9.80
2019-03-21T04:20:00.447Z,9.80
2019-03-21T04:22:30.964Z,9.80
2019-03-21T04:25:01.182Z,9.80
2019-03-21T04:27:31.544Z,9.70
2019-03-21T04:30:01.860Z,9.80
2019-03-21T04:32:32.467Z,9.80
2019-03-21T04:35:02.896Z,9.80
2019-03-21T04:37:33.319Z,9.80
2019-03-21T04:40:03.964Z,9.80
2019-03-21T04:42:34.680Z,9.80
2019-03-21T04:45:09.547Z,9.80
2019-03-21T04:47:39.824Z,9.80
2019-03-21T04:50:13.624Z,9.80
2019-03-21T04:52:44.496Z,9.80
2019-03-21T04:55:15.360Z,9.80
2019-03-21T04:57:46.142Z,9.80
2019-03-21T05:00:20.353Z,9.80
2019-03-21T05:02:51.307Z,9.80
2019-03-21T05:05:21.842Z,9.90
2019-03-21T05:07:52.097Z,9.90
2019-03-21T05:10:22.391Z,9.90
2019-03-21T05:12:52.546Z,9.90
2019-03-21T05:15:48.103Z,9.90
2019-03-21T05:18:21.932Z,9.90
2019-03-21T05:20:52.201Z,9.90
2019-03-21T05:23:22.602Z,9.90
2019-03-21T05:25:53.011Z,9.90
2019-03-21T05:28:23.929Z,9.90
2019-03-21T05:31:00.133Z,9.90
2019-03-21T05:33:30.643Z,9.90
2019-03-21T05:36:01.188Z,9.90
2019-03-21T05:38:32.320Z,9.90
2019-03-21T05:41:09.978Z,9.90
2019-03-21T05:43:46.505Z,9.90
2019-03-21T05:46:26.133Z,9.90
2019-03-21T05:48:49.261Z,9.90
2019-03-21T05:51:19.475Z,9.90
2019-03-21T05:53:49.700Z,9.90
2019-03-21T05:56:19.942Z,10.00
2019-03-21T05:58:50.379Z,10.00
2019-03-21T06:01:20.621Z,10.00
2019-03-21T06:03:52.121Z,9.90
2019-03-21T06:06:27.292Z,10.00
2019-03-21T06:08:58.537Z,10.00
2019-03-21T06:11:29.066Z,9.90
2019-03-21T06:13:59.524Z,10.00
2019-03-21T06:16:37.586Z,10.00
2019-03-21T06:19:39.066Z,10.00
2019-03-21T06:22:43.712Z,10.00
2019-03-21T06:25:31.354Z,10.00
2019-03-21T06:28:01.840Z,10.00
2019-03-21T06:30:32.239Z,10.00
2019-03-21T06:33:02.684Z,10.00
2019-03-21T06:35:33.053Z,10.00
2019-03-21T06:38:03.550Z,10.10
2019-03-21T06:40:33.711Z,10.00
2019-03-21T06:43:04.034Z,10.10
2019-03-21T06:45:34.597Z,10.10
2019-03-21T06:48:04.992Z,10.10
2019-03-21T06:50:35.314Z,10.10
2019-03-21T06:53:07.053Z,10.10
2019-03-21T06:55:37.517Z,10.20
2019-03-21T06:58:07.906Z,10.20
2019-03-21T07:00:38.196Z,10.20
2019-03-21T07:03:08.472Z,10.20
2019-03-21T07:05:38.746Z,10.20
2019-03-21T07:08:08.953Z,10.10
2019-03-21T07:10:39.246Z,10.10
2019-03-21T07:13:09.456Z,10.10
2019-03-21T07:15:40.900Z,10.10
2019-03-21T07:18:11.039Z,10.20
2019-03-21T07:20:41.859Z,10.10
2019-03-21T07:23:12.211Z,10.10
2019-03-21T07:25:42.490Z,10.10
2019-03-21T07:28:13.001Z,10.10
2019-03-21T07:30:43.188Z,10.10
2019-03-21T07:33:13.576Z,10.10
2019-03-21T07:35:43.846Z,10.20
2019-03-21T07:38:14.843Z,10.10
2019-03-21T07:40:45.423Z,10.10
2019-03-21T07:43:16.080Z,10.10
2019-03-21T07:45:46.559Z,10.10
2019-03-21T07:48:17.413Z,10.10
2019-03-21T07:50:47.745Z,10.10
2019-03-21T07:53:18.176Z,10.20
2019-03-21T07:55:49.555Z,10.20
2019-03-21T07:58:19.969Z,10.20
2019-03-21T08:00:51.273Z,10.20
2019-03-21T08:03:21.606Z,10.30
2019-03-21T08:05:52.679Z,10.30
2019-03-21T08:08:22.822Z,10.30
2019-03-21T08:10:53.159Z,10.40
2019-03-21T08:13:23.550Z,10.40
2019-03-21T08:15:53.910Z,10.30
2019-03-21T08:18:24.145Z,10.30
2019-03-21T08:20:58.386Z,10.30
2019-03-21T08:23:26.223Z,10.30
2019-03-21T08:25:56.644Z,10.30
2019-03-21T08:28:26.970Z,10.30
2019-03-21T08:31:16.616Z,10.30
2019-03-21T08:33:47.163Z,10.20
2019-03-21T08:36:18.022Z,10.10
2019-03-21T08:38:48.233Z,10.10
2019-03-21T08:41:18.556Z,10.00
2019-03-21T08:43:48.788Z,9.90
2019-03-21T08:46:19.617Z,9.90
2019-03-21T08:48:50.159Z,9.90
2019-03-21T08:51:20.545Z,9.90
2019-03-21T08:53:50.973Z,9.90
2019-03-21T08:56:21.132Z,9.80
2019-03-21T08:58:51.341Z,9.80
2019-03-21T09:01:22.028Z,9.80
2019-03-21T09:03:52.284Z,9.70
2019-03-21T09:06:22.902Z,9.80
2019-03-21T09:08:53.254Z,9.70
2019-03-21T09:11:23.744Z,9.70
2019-03-21T09:13:53.902Z,9.70
2019-03-21T09:16:24.544Z,9.70
2019-03-21T09:18:55.502Z,9.60
2019-03-21T09:21:25.904Z,9.50
2019-03-21T09:23:57.552Z,9.60
2019-03-21T09:26:27.985Z,9.60
2019-03-21T09:28:59.546Z,9.60
2019-03-21T09:31:30.184Z,9.60
2019-03-21T09:34:00.427Z,9.60
2019-03-21T09:36:30.621Z,9.50
2019-03-21T09:39:00.881Z,9.60
2019-03-21T09:41:31.278Z,9.50
2019-03-21T09:44:01.418Z,9.60
2019-03-21T09:46:31.703Z,9.60
2019-03-21T09:49:02.229Z,9.60
2019-03-21T09:51:32.482Z,9.70
2019-03-21T09:54:09.817Z,9.70
2019-03-21T09:56:34.618Z,9.70
2019-03-21T09:59:04.845Z,9.80
2019-03-21T10:01:35.139Z,9.80
2019-03-21T10:04:05.466Z,9.80
2019-03-21T10:06:36.157Z,9.80
2019-03-21T10:09:07.859Z,9.90
2019-03-21T10:11:38.031Z,9.90
2019-03-21T10:14:09.535Z,10.00
2019-03-21T10:16:40.261Z,10.00
2019-03-21T10:19:10.479Z,10.00
2019-03-21T10:21:43.694Z,10.00
2019-03-21T10:24:12.725Z,10.10
2019-03-21T10:26:42.983Z,10.10
2019-03-21T10:29:13.494Z,10.10
2019-03-21T10:31:44.201Z,10.20
2019-03-21T10:34:16.538Z,10.20
2019-03-21T10:36:46.852Z,10.30
2019-03-21T10:39:17.234Z,10.40
2019-03-21T10:41:47.818Z,10.50
2019-03-21T10:44:17.976Z,10.50
2019-03-21T10:46:48.225Z,10.60
2019-03-21T10:49:18.417Z,10.60
2019-03-21T10:51:55.000Z,10.70
2019-03-21T10:54:23.522Z,10.80
2019-03-21T10:56:53.366Z,10.80
2019-03-21T10:59:23.684Z,10.80
2019-03-21T11:02:06.620Z,10.80
2019-03-21T11:04:27.522Z,10.80
2019-03-21T11:07:02.105Z,10.90
2019-03-21T11:09:32.591Z,11.00
2019-03-21T11:12:03.315Z,11.10
2019-03-21T11:14:34.021Z,11.10
2019-03-21T11:17:04.336Z,11.20
2019-03-21T11:19:34.936Z,11.20
2019-03-21T11:22:07.454Z,11.30
2019-03-21T11:24:37.734Z,11.30
2019-03-21T11:27:08.401Z,11.40
2019-03-21T11:29:38.607Z,11.50
2019-03-21T11:32:09.058Z,11.60
2019-03-21T11:34:39.465Z,11.70
2019-03-21T11:37:09.713Z,11.80
2019-03-21T11:39:40.174Z,11.80
2019-03-21T11:42:10.464Z,11.90
2019-03-21T11:44:41.138Z,11.90
2019-03-21T11:47:11.413Z,11.90
2019-03-21T11:49:41.664Z,11.90
2019-03-21T11:52:18.108Z,11.90
2019-03-21T11:54:43.954Z,12.00
2019-03-21T11:57:15.052Z,12.00
2019-03-21T11:59:51.549Z,12.10
2019-03-21T12:02:26.500Z,12.10
2019-03-21T12:04:51.061Z,12.20
2019-03-21T12:07:23.134Z,12.20
2019-03-21T12:09:53.435Z,12.30
2019-03-21T12:12:23.976Z,12.30
2019-03-21T12:14:55.871Z,12.40
2019-03-21T12:17:26.462Z,12.50
2019-03-21T12:19:56.932Z,12.60
2019-03-21T12:22:30.362Z,12.60
2019-03-21T12:25:00.865Z,12.60
2019-03-21T12:27:31.219Z,12.70
2019-03-21T12:30:01.592Z,12.70
2019-03-21T12:32:31.929Z,12.70
2019-03-21T12:35:05.987Z,12.70
2019-03-21T12:37:36.519Z,12.70
2019-03-21T12:40:08.008Z,12.80
2019-03-21T12:42:38.329Z,12.90
2019-03-21T12:45:09.607Z,12.80
2019-03-21T12:47:40.033Z,12.90
2019-03-21T12:50:11.188Z,12.90
2019-03-21T12:52:41.847Z,13.00
2019-03-21T12:55:12.551Z,12.90
2019-03-21T12:57:42.748Z,13.00
2019-03-21T13:00:17.957Z,12.90
2019-03-21T13:02:48.477Z,12.80
2019-03-21T13:05:27.698Z,12.80
2019-03-21T13:07:58.071Z,12.70
2019-03-21T13:10:28.821Z,12.60
2019-03-21T13:12:59.552Z,12.70
2019-03-21T13:15:30.489Z,12.80
2019-03-21T13:18:01.602Z,12.90
2019-03-21T13:20:32.160Z,13.00
2019-03-21T13:23:02.710Z,13.00
2019-03-21T13:25:32.920Z,13.00
2019-03-21T13:28:03.714Z,13.00
2019-03-21T13:30:34.721Z,13.20
2019-03-21T13:33:05.715Z,13.20
2019-03-21T13:35:36.352Z,13.20
2019-03-21T13:38:06.859Z,13.20
2019-03-21T13:40:37.844Z,13.30
2019-03-21T13:43:11.328Z,13.40
2019-03-21T13:45:41.764Z,13.40
2019-03-21T13:48:12.037Z,13.40
2019-03-21T13:50:42.424Z,13.40
2019-03-21T13:53:18.674Z,13.40
2019-03-21T13:55:44.758Z,13.40
2019-03-21T13:58:14.964Z,13.30
2019-03-21T14:00:45.397Z,13.10
2019-03-21T14:03:24.692Z,13.00
2019-03-21T14:05:47.687Z,13.10
2019-03-21T14:08:17.948Z,13.20
2019-03-21T14:10:48.169Z,13.20
2019-03-21T14:13:18.482Z,13.10
2019-03-21T14:15:48.815Z,13.00
2019-03-21T14:18:19.725Z,12.90
2019-03-21T14:20:49.869Z,12.90
2019-03-21T14:23:20.093Z,12.90
2019-03-21T14:25:50.310Z,12.90
2019-03-21T14:28:20.726Z,12.90
2019-03-21T14:30:51.139Z,12.90
2019-03-21T14:33:22.748Z,12.90
2019-03-21T14:35:52.908Z,12.90
2019-03-21T14:38:26.464Z,12.90
2019-03-21T14:40:55.262Z,12.90
2019-03-21T14:43:25.692Z,12.90
2019-03-21T14:45:55.996Z,12.90
2019-03-21T14:48:26.338Z,12.90
2019-03-21T14:50:56.701Z,12.90
2019-03-21T14:53:29.053Z,12.80
2019-03-21T14:55:59.649Z,12.80
2019-03-21T14:58:30.209Z,12.80
2019-03-21T15:01:00.709Z,12.70
2019-03-21T15:03:31.191Z,12.70
2019-03-21T15:06:01.590Z,12.70
2019-03-21T15:08:31.896Z,12.70
2019-03-21T15:11:02.501Z,12.60
2019-03-21T15:13:33.102Z,12.60
2019-03-21T15:16:03.765Z,12.60
2019-03-21T15:18:34.038Z,12.60
2019-03-21T15:21:04.249Z,12.70
2019-03-21T15:23:40.589Z,12.70
2019-03-21T15:26:06.780Z,12.60
2019-03-21T15:28:37.393Z,12.60
2019-03-21T15:31:07.806Z,12.60
2019-03-21T15:33:38.203Z,12.60
2019-03-21T15:36:09.382Z,12.60
2019-03-21T15:38:39.962Z,12.60
2019-03-21T15:41:10.346Z,12.70
2019-03-21T15:43:40.834Z,12.60
2019-03-21T15:46:11.185Z,12.60
2019-03-21T15:48:41.927Z,12.60
2019-03-21T15:51:14.386Z,12.50
2019-03-21T15:53:54.535Z,12.60
2019-03-21T15:56:17.597Z,12.60
2019-03-21T15:58:47.859Z,12.60
2019-03-21T16:01:18.318Z,12.50
2019-03-21T16:03:48.737Z,12.40
2019-03-21T16:06:19.016Z,12.40
2019-03-21T16:08:49.734Z,12.30
2019-03-21T16:11:19.956Z,12.30
2019-03-21T16:13:50.597Z,12.20
2019-03-21T16:16:20.942Z,12.10
2019-03-21T16:18:51.954Z,12.10
2019-03-21T16:21:22.257Z,12.10
2019-03-21T16:24:04.195Z,12.10
2019-03-21T16:26:25.231Z,12.10
2019-03-21T16:28:55.801Z,12.10
2019-03-21T16:31:26.532Z,12.10
2019-03-21T16:33:57.883Z,12.00
2019-03-21T16:36:28.907Z,11.90
2019-03-21T16:38:59.246Z,11.90
2019-03-21T16:41:30.400Z,11.80
2019-03-21T16:44:00.689Z,11.80
2019-03-21T16:46:30.920Z,11.80
2019-03-21T16:49:01.228Z,11.70
2019-03-21T16:51:32.001Z,11.60
2019-03-21T16:54:02.441Z,11.60
2019-03-21T16:56:32.800Z,11.60
2019-03-21T16:59:03.348Z,11.60
2019-03-21T17:01:33.761Z,11.60
2019-03-21T17:04:04.037Z,11.50
2019-03-21T17:06:34.459Z,11.50
2019-03-21T17:09:07.859Z,11.40
2019-03-21T17:11:38.386Z,11.40
2019-03-21T17:14:08.609Z,11.40
2019-03-21T17:16:38.944Z,11.40
2019-03-21T17:19:09.541Z,11.30
2019-03-21T17:21:40.901Z,11.20
2019-03-21T17:24:11.105Z,11.20
2019-03-21T17:26:41.384Z,11.20
2019-03-21T17:29:11.563Z,11.20
2019-03-21T17:31:42.076Z,11.20
2019-03-21T17:34:12.766Z,11.10
2019-03-21T17:36:43.067Z,11.10
2019-03-21T17:39:13.424Z,11.10
2019-03-21T17:41:43.941Z,11.10
2019-03-21T17:44:15.723Z,11.10
2019-03-21T17:46:46.089Z,11.10
2019-03-21T17:49:16.517Z,11.10
2019-03-21T17:51:47.338Z,11.00
2019-03-21T17:54:18.165Z,11.00
2019-03-21T17:56:48.648Z,11.00
2019-03-21T17:59:19.263Z,11.00
2019-03-21T18:01:49.909Z,11.00
2019-03-21T18:04:20.763Z,11.00
2019-03-21T18:06:51.165Z,11.00
2019-03-21T18:09:21.632Z,11.00
2019-03-21T18:11:52.172Z,10.90
2019-03-21T18:14:22.372Z,10.90
2019-03-21T18:16:53.163Z,10.90
2019-03-21T18:19:23.674Z,10.90
2019-03-21T18:21:53.862Z,10.90
2019-03-21T18:24:26.507Z,10.90
2019-03-21T18:26:57.065Z,10.90
2019-03-21T18:29:27.340Z,10.90
2019-03-21T18:31:57.716Z,10.90
2019-03-21T18:34:28.008Z,10.80
2019-03-21T18:36:58.795Z,10.80
2019-03-21T18:39:29.125Z,10.80
2019-03-21T18:42:02.378Z,10.80
2019-03-21T18:44:32.240Z,10.80
2019-03-21T18:47:10.879Z,10.80
2019-03-21T18:49:46.939Z,10.70
2019-03-21T18:52:17.666Z,10.70
2019-03-21T18:54:48.544Z,10.70
2019-03-21T18:57:19.398Z,10.70
2019-03-21T18:59:50.304Z,10.70
2019-03-21T19:02:20.664Z,10.70
2019-03-21T19:04:51.414Z,10.70
2019-03-21T19:07:22.063Z,10.70
2019-03-21T19:09:52.472Z,10.70
2019-03-21T19:12:23.207Z,10.70
2019-03-21T19:14:54.213Z,10.60
2019-03-21T19:17:24.782Z,10.60
2019-03-21T19:19:55.414Z,10.60
2019-03-21T19:22:28.330Z,10.60
2019-03-21T19:24:58.737Z,10.60
2019-03-21T19:27:29.373Z,10.50
2019-03-21T19:30:24.346Z,10.50
2019-03-21T19:32:45.857Z,10.50
2019-03-21T19:35:23.394Z,10.50
2019-03-21T19:37:59.569Z,10.50
2019-03-21T19:40:30.512Z,10.50
2019-03-21T19:43:26.615Z,10.40
2019-03-21T19:45:59.646Z,10.50
2019-03-21T19:48:33.979Z,10.40
2019-03-21T19:51:11.937Z,10.40
2019-03-21T19:53:58.384Z,10.40
2019-03-21T19:56:29.133Z,10.40
2019-03-21T19:59:01.148Z,10.40
2019-03-21T20:01:31.754Z,10.40
2019-03-21T20:04:02.023Z,10.40
2019-03-21T20:06:32.508Z,10.40
2019-03-21T20:09:14.497Z,10.40
2019-03-21T20:11:45.301Z,10.40
2019-03-21T20:14:17.533Z,10.40
2019-03-21T20:16:48.046Z,10.40
2019-03-21T20:19:19.800Z,10.40
2019-03-21T20:21:51.323Z,10.40
2019-03-21T20:24:21.732Z,10.40
2019-03-21T20:26:52.081Z,10.40
2019-03-21T20:29:22.488Z,10.30
2019-03-21T20:31:52.933Z,10.40
2019-03-21T20:34:24.387Z,10.30
2019-03-21T20:36:54.573Z,10.40
2019-03-21T20:39:24.969Z,10.40
2019-03-21T20:41:55.289Z,10.30
2019-03-21T20:44:25.838Z,10.40
2019-03-21T20:46:56.132Z,10.40
2019-03-21T20:49:26.840Z,10.40
2019-03-21T20:51:57.103Z,10.40
2019-03-21T20:54:27.588Z,10.40
2019-03-21T20:56:57.990Z,10.40
2019-03-21T20:59:28.187Z,10.40
2019-03-21T21:02:02.890Z,10.40
2019-03-21T21:04:30.659Z,10.40
2019-03-21T21:07:00.875Z,10.40
2019-03-21T21:09:31.149Z,10.40
2019-03-21T21:12:01.680Z,10.30
2019-03-21T21:14:31.991Z,10.30
2019-03-21T21:17:02.246Z,10.30
2019-03-21T21:19:40.577Z,10.30
2019-03-21T21:22:12.894Z,10.30
2019-03-21T21:24:43.910Z,10.30
2019-03-21T21:27:14.636Z,10.30
2019-03-21T21:29:51.936Z,10.30
2019-03-21T21:32:22.198Z,10.30
2019-03-21T21:34:54.615Z,10.20
2019-03-21T21:37:24.604Z,10.20
2019-03-21T21:39:55.242Z,10.20
2019-03-21T21:42:26.292Z,10.20
2019-03-21T21:44:57.852Z,10.20
2019-03-21T21:47:28.684Z,10.20
2019-03-21T21:50:00.013Z,10.20
2019-03-21T21:52:41.537Z,10.20
2019-03-21T21:55:05.448Z,10.20
2019-03-21T21:57:35.641Z,10.20
2019-03-21T22:00:12.064Z,10.10
2019-03-21T22:02:42.244Z,10.10
2019-03-21T22:05:12.715Z,10.10
2019-03-21T22:07:42.888Z,10.10
2019-03-21T22:10:13.701Z,10.10
2019-03-21T22:12:43.888Z,10.10
2019-03-21T22:15:14.216Z,10.10
2019-03-21T22:17:44.541Z,10.10
2019-03-21T22:20:16.279Z,10.10
2019-03-21T22:22:46.733Z,10.10
2019-03-21T22:25:17.078Z,10.10
2019-03-21T22:27:47.193Z,10.10
2019-03-21T22:30:17.712Z,10.00
2019-03-21T22:32:48.275Z,10.00
2019-03-21T22:35:18.510Z,10.00
2019-03-21T22:37:48.809Z,10.00
2019-03-21T22:40:19.420Z,10.00
2019-03-21T22:42:49.624Z,10.00
2019-03-21T22:45:20.144Z,10.00
2019-03-21T22:47:50.906Z,10.00
2019-03-21T22:50:21.574Z,9.90
2019-03-21T22:52:51.802Z,9.90
2019-03-21T22:55:22.128Z,9.90
2019-03-21T22:57:52.427Z,9.90
2019-03-21T23:00:24.508Z,9.90
2019-03-21T23:02:54.969Z,9.90
2019-03-21T23:05:25.965Z,9.90
2019-03-21T23:07:56.108Z,9.80
2019-03-21T23:10:26.312Z,9.80
2019-03-21T23:12:56.440Z,9.80
2019-03-21T23:15:26.724Z,9.80
2019-03-21T23:17:56.866Z,9.80
2019-03-21T23:20:26.965Z,9.80
2019-03-21T23:22:57.089Z,9.70
2019-03-21T23:25:27.474Z,9.70
2019-03-21T23:27:57.567Z,9.70
2019-03-21T23:30:27.707Z,9.70
2019-03-21T23:32:57.844Z,9.70
2019-03-21T23:35:28.124Z,9.70
2019-03-21T23:37:58.544Z,9.70
2019-03-21T23:40:28.994Z,9.80
2019-03-21T23:42:59.160Z,9.80
2019-03-21T23:45:29.352Z,9.80
2019-03-21T23:47:59.556Z,9.70
2019-03-21T23:50:29.661Z,9.70
2019-03-21T23:53:00.917Z,9.70
2019-03-21T23:55:31.297Z,9.70
2019-03-21T23:58:01.555Z,9.70
